Time;durP1;ratioP1;P1;durP2;ratioP2;P2;SDS_P1;SDS_P2;PMS_P1;PMS_P2;Temp;Humidity;BMP_temperature;BMP_pressure;BME280_temperature;BME280_humidity;BME280_pressure;Samples;Min_cycle;Max_cycle;Signal;HPM_P1;HPM_P2
2024/01/21 00:01:00;;;;;;;8.48;1.92;;;29.00;99.90;;;;;;5050662;28;20227;-76
2024/01/21 00:03:30;;;;;;;3.65;1.80;;;29.10;99.90;;;;;;5074285;28;20250;-76
2024/01/21 00:06:01;;;;;;;5.18;1.90;;;29.20;99.90;;;;;;5090203;28;20301;-76
2024/01/21 00:08:34;;;;;;;5.57;1.70;;;29.20;99.90;;;;;;5080350;28;20276;-76
2024/01/21 00:11:05;;;;;;;5.35;1.90;;;29.30;99.90;;;;;;5081077;28;20214;-75
2024/01/21 00:13:36;;;;;;;5.22;1.75;;;29.40;99.90;;;;;;5090584;28;20237;-75
2024/01/21 00:16:07;;;;;;;4.00;1.50;;;29.40;99.90;;;;;;5070738;28;20715;-76
2024/01/21 00:18:37;;;;;;;6.45;1.80;;;29.50;99.90;;;;;;5090713;28;20222;-76
2024/01/21 00:21:08;;;;;;;4.60;2.03;;;29.60;99.90;;;;;;5051412;28;20220;-75
2024/01/21 00:23:41;;;;;;;6.25;1.75;;;29.60;99.90;;;;;;5060391;28;20592;-75
2024/01/21 00:26:12;;;;;;;5.75;1.90;;;29.80;99.90;;;;;;5070667;28;20224;-75
2024/01/21 00:28:43;;;;;;;7.30;1.67;;;29.90;99.90;;;;;;5078743;28;20256;-76
2024/01/21 00:31:13;;;;;;;8.23;2.00;;;29.90;99.90;;;;;;5084937;28;20208;-76
2024/01/21 00:33:44;;;;;;;4.93;1.50;;;30.10;99.90;;;;;;5073767;28;20244;-77
2024/01/21 00:36:15;;;;;;;2.97;1.58;;;30.20;99.90;;;;;;5096667;28;20220;-77
2024/01/21 00:38:48;;;;;;;3.35;1.33;;;30.30;99.90;;;;;;5062801;28;20201;-77
2024/01/21 00:41:20;;;;;;;5.05;1.48;;;30.40;99.90;;;;;;5055178;28;20207;-76
2024/01/21 00:43:51;;;;;;;3.95;1.48;;;30.50;99.90;;;;;;5065368;28;20572;-76
2024/01/21 00:46:21;;;;;;;5.00;1.77;;;30.60;99.90;;;;;;5094135;28;20205;-75
2024/01/21 00:48:52;;;;;;;4.60;1.63;;;30.60;99.90;;;;;;5073729;28;20219;-76
2024/01/21 00:51:23;;;;;;;5.65;1.55;;;30.70;99.90;;;;;;5054368;28;20197;-76
2024/01/21 00:53:56;;;;;;;3.35;1.20;;;30.80;99.90;;;;;;5057635;28;20219;-77
2024/01/21 00:56:27;;;;;;;3.80;1.45;;;30.90;99.90;;;;;;5054207;28;20200;-77
2024/01/21 00:58:58;;;;;;;3.72;1.40;;;30.90;99.90;;;;;;5079641;28;20203;-76
2024/01/21 01:01:29;;;;;;;6.47;1.50;;;31.10;99.90;;;;;;5094748;28;20199;-76
2024/01/21 01:03:59;;;;;;;5.13;1.33;;;31.20;99.90;;;;;;5053411;28;20201;-77
2024/01/21 01:06:30;;;;;;;4.40;1.50;;;31.30;99.90;;;;;;5062837;28;20196;-76
2024/01/21 01:09:04;;;;;;;6.78;1.60;;;31.40;99.90;;;;;;5074986;28;20204;-77
2024/01/21 01:11:37;;;;;;;4.40;1.40;;;31.40;99.90;;;;;;5075567;28;20757;-77
2024/01/21 01:14:08;;;;;;;2.42;1.30;;;31.50;99.90;;;;;;5069679;28;20258;-77
2024/01/21 01:16:41;;;;;;;2.25;1.20;;;31.60;99.90;;;;;;5075174;28;20230;-77
2024/01/21 01:19:12;;;;;;;3.70;1.63;;;31.70;99.90;;;;;;5074403;28;20279;-77
2024/01/21 01:21:42;;;;;;;3.22;1.40;;;31.80;99.90;;;;;;5055022;28;20196;-78
2024/01/21 01:24:16;;;;;;;2.15;1.13;;;31.90;99.90;;;;;;5061398;28;20200;-78
2024/01/21 01:26:46;;;;;;;2.83;0.95;;;31.90;99.90;;;;;;5065644;28;20205;-78
2024/01/21 01:29:20;;;;;;;3.83;1.05;;;32.10;95.10;;;;;;5054075;28;20667;-78
2024/01/21 01:31:51;;;;;;;1.70;0.70;;;32.30;89.50;;;;;;5056628;28;20597;-77
2024/01/21 01:34:21;;;;;;;4.00;1.00;;;32.30;88.80;;;;;;5073565;28;20685;-78
2024/01/21 01:36:52;;;;;;;1.55;0.75;;;32.50;83.50;;;;;;5069523;28;20565;-77
2024/01/21 01:39:25;;;;;;;1.30;0.80;;;32.70;78.10;;;;;;5053662;28;20566;-77
2024/01/21 01:41:56;;;;;;;3.05;0.93;;;32.80;79.30;;;;;;5054258;28;20223;-79
2024/01/21 01:44:26;;;;;;;2.00;0.95;;;33.00;76.10;;;;;;5060189;28;20198;-78
2024/01/21 01:46:58;;;;;;;3.35;1.10;;;33.00;72.70;;;;;;5072900;28;20218;-80
2024/01/21 01:49:28;;;;;;;2.33;1.13;;;33.10;71.80;;;;;;5073361;28;20204;-77
2024/01/21 01:52:00;;;;;;;1.42;0.90;;;33.20;71.60;;;;;;5072268;28;20195;-76
2024/01/21 01:54:33;;;;;;;2.47;0.88;;;33.30;68.20;;;;;;5071708;28;20201;-77
2024/01/21 01:57:06;;;;;;;2.17;1.08;;;33.40;68.70;;;;;;5068756;28;20209;-77
2024/01/21 01:59:39;;;;;;;2.60;0.90;;;33.50;68.00;;;;;;5052790;28;20678;-78
2024/01/21 02:02:10;;;;;;;3.03;0.85;;;33.60;67.90;;;;;;5052663;28;20193;-77
2024/01/21 02:04:41;;;;;;;1.60;0.80;;;33.70;63.70;;;;;;5072270;28;20207;-77
2024/01/21 02:07:12;;;;;;;3.22;0.90;;;33.70;64.00;;;;;;5091749;28;20223;-77
2024/01/21 02:09:45;;;;;;;1.88;0.93;;;33.70;61.40;;;;;;5091917;28;20210;-77
2024/01/21 02:12:17;;;;;;;2.33;0.80;;;33.80;57.30;;;;;;5082082;28;20208;-78
2024/01/21 02:14:48;;;;;;;3.80;0.82;;;33.80;59.10;;;;;;5067543;28;20218;-78
2024/01/21 02:17:19;;;;;;;1.08;0.80;;;34.00;60.50;;;;;;5073314;28;20200;-78
2024/01/21 02:19:49;;;;;;;1.90;0.82;;;34.10;56.70;;;;;;5075279;28;20193;-77
2024/01/21 02:22:21;;;;;;;1.27;0.70;;;34.30;57.10;;;;;;5088318;28;20195;-77
2024/01/21 02:24:53;;;;;;;0.70;0.70;;;34.40;56.20;;;;;;5075371;28;20200;-77
2024/01/21 02:27:24;;;;;;;3.38;0.85;;;34.40;53.80;;;;;;5071727;28;20192;-77
2024/01/21 02:29:55;;;;;;;2.13;0.55;;;34.50;54.30;;;;;;5072940;28;20207;-76
2024/01/21 02:32:26;;;;;;;1.42;0.90;;;34.60;54.10;;;;;;5067744;28;20267;-77
2024/01/21 02:34:57;;;;;;;1.15;0.63;;;34.70;53.60;;;;;;5072752;28;20699;-77
2024/01/21 02:37:28;;;;;;;1.88;0.77;;;34.70;52.60;;;;;;5054507;28;20284;-78
2024/01/21 02:40:01;;;;;;;5.25;1.30;;;34.70;53.40;;;;;;5052521;28;20545;-77
2024/01/21 02:42:32;;;;;;;7.97;1.75;;;34.70;62.60;;;;;;5072354;28;20636;-77
2024/01/21 02:45:03;;;;;;;4.63;1.40;;;34.60;69.40;;;;;;5072441;28;20200;-77
2024/01/21 02:47:34;;;;;;;4.30;1.35;;;34.50;68.10;;;;;;5080888;28;20203;-77
2024/01/21 02:50:04;;;;;;;9.32;1.90;;;34.50;72.20;;;;;;5051690;28;20189;-77
2024/01/21 02:52:35;;;;;;;6.07;2.17;;;34.40;76.50;;;;;;5073068;28;20223;-78
2024/01/21 02:55:08;;;;;;;6.00;2.13;;;34.40;79.40;;;;;;5061421;28;20191;-77
2024/01/21 02:57:39;;;;;;;5.78;2.28;;;34.30;83.00;;;;;;5086525;28;20199;-77
2024/01/21 03:00:10;;;;;;;7.53;2.60;;;34.10;86.90;;;;;;5091922;28;20191;-77
2024/01/21 03:02:41;;;;;;;6.63;2.30;;;34.00;90.20;;;;;;5080828;28;20256;-77
2024/01/21 03:05:12;;;;;;;5.32;1.98;;;33.90;91.20;;;;;;5076736;28;20207;-78
2024/01/21 03:07:43;;;;;;;5.15;1.60;;;33.80;90.70;;;;;;5082003;28;20721;-77
2024/01/21 03:10:15;;;;;;;4.75;1.95;;;33.80;90.70;;;;;;5076232;28;20270;-78
2024/01/21 03:12:46;;;;;;;5.50;1.90;;;33.80;91.00;;;;;;5071146;28;20475;-77
2024/01/21 03:15:17;;;;;;;4.45;2.00;;;33.70;92.30;;;;;;5071338;28;20206;-77
2024/01/21 03:17:48;;;;;;;6.13;2.20;;;33.80;92.70;;;;;;5071474;28;20670;-77
2024/01/21 03:20:19;;;;;;;8.98;2.60;;;33.90;92.40;;;;;;5083399;28;20195;-77
2024/01/21 03:22:50;;;;;;;9.18;2.50;;;34.00;94.60;;;;;;5079857;28;20211;-77
2024/01/21 03:25:22;;;;;;;6.43;2.20;;;34.10;95.60;;;;;;5078460;28;20203;-77
2024/01/21 03:27:53;;;;;;;6.13;2.00;;;33.90;94.00;;;;;;5060343;28;20199;-79
2024/01/21 03:30:24;;;;;;;6.63;2.22;;;34.00;93.80;;;;;;5051256;28;20189;-78
2024/01/21 03:32:54;;;;;;;4.68;1.90;;;34.00;93.60;;;;;;5060149;28;20234;-77
2024/01/21 03:35:25;;;;;;;7.35;2.10;;;34.00;93.30;;;;;;5057712;28;20196;-77
2024/01/21 03:37:56;;;;;;;4.00;1.50;;;34.00;93.40;;;;;;5085231;28;20191;-77
2024/01/21 03:40:29;;;;;;;8.45;1.80;;;34.00;90.20;;;;;;5074859;28;20608;-78
2024/01/21 03:42:59;;;;;;;5.57;1.92;;;34.10;92.10;;;;;;5068951;28;20282;-77
2024/01/21 03:45:30;;;;;;;5.10;1.98;;;34.20;93.70;;;;;;5091273;28;20282;-77
2024/01/21 03:48:01;;;;;;;4.75;1.92;;;34.10;94.00;;;;;;5088313;28;20199;-77
2024/01/21 03:50:32;;;;;;;4.85;1.88;;;34.20;94.30;;;;;;5085807;28;20199;-76
2024/01/21 03:53:03;;;;;;;5.93;1.88;;;34.30;95.80;;;;;;5088290;28;20731;-77
2024/01/21 03:55:35;;;;;;;8.93;1.73;;;34.20;93.60;;;;;;5090082;28;20206;-77
2024/01/21 03:58:06;;;;;;;5.00;1.83;;;34.10;93.70;;;;;;5050003;28;20192;-78
2024/01/21 04:00:37;;;;;;;4.80;1.52;;;34.10;92.50;;;;;;5059522;28;20210;-78
2024/01/21 04:03:08;;;;;;;4.93;1.40;;;34.10;91.00;;;;;;5080422;28;20750;-77
2024/01/21 04:05:39;;;;;;;4.28;1.13;;;34.10;89.40;;;;;;5074237;28;20262;-77
2024/01/21 04:08:14;;;;;;;3.78;1.42;;;34.10;90.20;;;;;;5055726;28;20233;-77
2024/01/21 04:10:47;;;;;;;6.38;1.70;;;34.20;90.70;;;;;;5072015;28;20199;-77
2024/01/21 04:13:19;;;;;;;4.22;1.55;;;34.10;90.10;;;;;;5061016;28;20224;-77
2024/01/21 04:15:49;;;;;;;5.50;1.85;;;34.20;88.80;;;;;;5066451;28;20199;-77
2024/01/21 04:18:20;;;;;;;5.22;1.80;;;34.30;90.60;;;;;;5059980;28;20222;-77
2024/01/21 04:20:51;;;;;;;5.03;1.50;;;34.30;90.70;;;;;;5097454;28;20201;-78
2024/01/21 04:23:22;;;;;;;4.60;1.45;;;34.20;90.30;;;;;;5068350;28;20203;-77
2024/01/21 04:25:54;;;;;;;5.03;1.55;;;34.20;89.80;;;;;;5057055;28;20659;-78
2024/01/21 04:28:26;;;;;;;4.30;1.58;;;34.30;89.70;;;;;;5063805;28;20226;-78
2024/01/21 04:30:57;;;;;;;3.35;1.48;;;34.40;90.60;;;;;;5070367;28;20586;-76
2024/01/21 04:33:28;;;;;;;5.90;1.50;;;34.40;88.40;;;;;;5058126;28;20231;-77
2024/01/21 04:35:59;;;;;;;2.83;1.45;;;34.50;89.20;;;;;;5057612;28;20196;-77
2024/01/21 04:38:29;;;;;;;3.28;1.40;;;34.70;87.40;;;;;;5093293;28;20544;-77
2024/01/21 04:41:02;;;;;;;6.28;1.40;;;34.70;86.80;;;;;;5090806;28;20195;-78
2024/01/21 04:43:33;;;;;;;3.88;1.23;;;34.70;86.10;;;;;;5077127;28;20199;-78
2024/01/21 04:46:04;;;;;;;4.50;1.40;;;34.80;84.20;;;;;;5094168;28;20215;-77
2024/01/21 04:48:35;;;;;;;7.43;1.50;;;34.80;83.30;;;;;;5060138;28;20287;-77
2024/01/21 04:51:06;;;;;;;5.72;1.45;;;34.90;84.80;;;;;;5096873;28;20614;-76
2024/01/21 04:53:39;;;;;;;2.92;1.30;;;34.90;84.10;;;;;;5073499;28;20412;-77
2024/01/21 04:56:19;;;;;;;4.80;1.30;;;34.80;84.80;;;;;;5068763;28;20597;-77
2024/01/21 04:58:50;;;;;;;4.97;1.30;;;34.90;86.40;;;;;;5070990;28;20192;-77
2024/01/21 05:01:24;;;;;;;4.68;1.75;;;34.80;87.00;;;;;;5076589;28;20203;-77
2024/01/21 05:03:55;;;;;;;4.75;1.67;;;34.80;86.50;;;;;;5066051;28;20211;-77
2024/01/21 05:06:26;;;;;;;4.38;1.52;;;34.70;84.00;;;;;;5072833;28;20654;-78
2024/01/21 05:08:56;;;;;;;4.72;1.40;;;34.60;85.50;;;;;;5077501;28;20224;-78
2024/01/21 05:11:29;;;;;;;6.50;1.90;;;34.50;86.90;;;;;;5079689;28;20200;-77
2024/01/21 05:14:00;;;;;;;4.80;1.45;;;34.30;89.00;;;;;;5079943;28;20274;-76
2024/01/21 05:16:31;;;;;;;4.18;1.65;;;34.30;90.10;;;;;;5077332;28;20544;-77
2024/01/21 05:19:02;;;;;;;7.97;1.80;;;34.30;90.30;;;;;;5071656;28;20291;-77
2024/01/21 05:21:32;;;;;;;5.82;1.70;;;34.20;90.80;;;;;;5079061;28;20330;-77
2024/01/21 05:24:03;;;;;;;7.20;2.50;;;34.30;91.10;;;;;;5064948;28;20230;-77
2024/01/21 05:26:43;;;;;;;5.68;2.72;;;34.30;90.50;;;;;;5073440;28;20631;-76
2024/01/21 05:29:16;;;;;;;7.80;2.60;;;34.40;88.60;;;;;;5059378;28;20599;-76
2024/01/21 05:31:46;;;;;;;6.47;2.40;;;34.60;88.10;;;;;;5093405;28;20215;-77
2024/01/21 05:34:17;;;;;;;6.65;2.80;;;34.70;88.10;;;;;;5053026;28;20200;-77
2024/01/21 05:36:48;;;;;;;4.35;2.28;;;34.80;87.10;;;;;;5053230;28;20654;-77
2024/01/21 05:39:19;;;;;;;4.93;1.70;;;34.90;86.40;;;;;;5056333;28;20223;-77
2024/01/21 05:42:07;;;;;;;6.82;1.50;;;34.90;86.10;;;;;;5067978;28;20192;-77
2024/01/21 05:44:38;;;;;;;6.90;1.98;;;35.00;86.30;;;;;;5066896;28;20351;-77
2024/01/21 05:47:09;;;;;;;3.85;1.75;;;34.70;87.60;;;;;;5051722;28;20568;-76
2024/01/21 05:49:40;;;;;;;4.25;1.48;;;34.70;89.20;;;;;;5080268;28;20203;-77
2024/01/21 05:52:10;;;;;;;3.58;1.38;;;34.90;88.90;;;;;;5073351;28;20302;-76
2024/01/21 05:54:41;;;;;;;5.45;2.00;;;34.90;87.60;;;;;;5074239;28;20577;-77
2024/01/21 05:57:14;;;;;;;4.22;1.60;;;35.10;86.50;;;;;;5052867;28;20208;-77
2024/01/21 05:59:45;;;;;;;6.38;1.50;;;35.20;85.50;;;;;;5053015;28;20199;-77
2024/01/21 06:02:15;;;;;;;3.20;1.60;;;35.10;84.10;;;;;;5062391;28;20191;-76
2024/01/21 06:04:46;;;;;;;6.57;1.42;;;35.30;84.60;;;;;;5062611;28;20220;-77
2024/01/21 06:07:17;;;;;;;3.20;1.27;;;35.40;82.30;;;;;;5065681;28;20251;-76
2024/01/21 06:09:48;;;;;;;5.75;1.45;;;35.60;82.50;;;;;;5081623;28;20650;-77
2024/01/21 06:12:21;;;;;;;3.45;1.27;;;35.80;80.10;;;;;;5066376;28;20227;-76
2024/01/21 06:14:51;;;;;;;3.35;1.27;;;36.20;79.50;;;;;;5075074;28;20202;-77
2024/01/21 06:17:22;;;;;;;5.55;1.50;;;36.30;80.20;;;;;;5089400;28;20290;-76
2024/01/21 06:19:53;;;;;;;3.58;1.25;;;36.60;79.40;;;;;;5073999;28;20201;-77
2024/01/21 06:22:24;;;;;;;4.90;1.70;;;36.90;73.20;;;;;;5080058;28;20241;-77
2024/01/21 06:24:55;;;;;;;4.03;1.50;;;37.00;78.00;;;;;;5092937;28;20247;-76
2024/01/21 06:27:28;;;;;;;7.68;1.65;;;37.20;77.90;;;;;;5068414;28;20672;-76
2024/01/21 06:29:58;;;;;;;5.32;1.63;;;37.30;74.10;;;;;;5064158;28;20203;-77
2024/01/21 06:32:29;;;;;;;3.55;1.77;;;37.50;77.20;;;;;;5069642;28;20220;-76
2024/01/21 06:35:00;;;;;;;3.28;1.30;;;37.50;74.50;;;;;;5071805;28;20666;-76
2024/01/21 06:37:31;;;;;;;7.57;1.75;;;37.60;74.40;;;;;;5070405;28;20196;-76
2024/01/21 06:40:04;;;;;;;3.63;1.40;;;37.50;75.70;;;;;;5073576;28;20565;-76
2024/01/21 06:42:39;;;;;;;6.28;1.48;;;37.40;75.10;;;;;;5069021;28;20223;-77
2024/01/21 06:45:10;;;;;;;5.85;1.45;;;37.30;75.00;;;;;;5072131;28;20787;-77
2024/01/21 06:47:41;;;;;;;4.18;1.70;;;37.70;74.30;;;;;;5056921;28;20197;-77
2024/01/21 06:50:12;;;;;;;4.18;1.40;;;38.00;73.30;;;;;;5054405;28;20661;-77
2024/01/21 06:52:43;;;;;;;5.65;1.40;;;38.70;70.10;;;;;;5070276;28;20243;-77
2024/01/21 06:55:14;;;;;;;3.90;1.60;;;39.10;65.90;;;;;;5069542;28;20369;-77
2024/01/21 06:57:46;;;;;;;5.45;1.30;;;39.50;63.90;;;;;;5069514;28;20263;-77
2024/01/21 07:00:18;;;;;;;6.28;1.55;;;40.10;62.50;;;;;;5066900;28;20188;-77
2024/01/21 07:02:49;;;;;;;4.95;1.50;;;40.40;62.50;;;;;;5071439;28;20206;-77
2024/01/21 07:05:19;;;;;;;5.10;1.35;;;40.60;63.60;;;;;;5071174;28;20226;-77
2024/01/21 07:07:50;;;;;;;7.15;1.90;;;40.80;64.40;;;;;;5071562;28;20227;-77
2024/01/21 07:10:21;;;;;;;9.40;1.90;;;40.90;62.20;;;;;;5071587;28;20202;-77
2024/01/21 07:12:55;;;;;;;6.13;2.08;;;41.10;62.10;;;;;;5057658;28;20258;-77
2024/01/21 07:15:27;;;;;;;5.07;1.67;;;41.10;61.20;;;;;;5071190;28;20284;-77
2024/01/21 07:17:57;;;;;;;4.70;1.70;;;41.30;58.50;;;;;;5059936;28;20254;-77
2024/01/21 07:20:28;;;;;;;8.43;2.10;;;41.40;57.30;;;;;;5060523;28;20200;-76
2024/01/21 07:22:59;;;;;;;6.53;1.70;;;41.60;57.00;;;;;;5055630;28;20268;-76
2024/01/21 07:25:30;;;;;;;7.20;1.80;;;41.70;55.60;;;;;;5071531;28;20661;-78
2024/01/21 07:28:03;;;;;;;4.28;1.60;;;41.80;54.00;;;;;;5073071;28;20267;-78
2024/01/21 07:30:33;;;;;;;5.88;1.58;;;41.90;54.10;;;;;;5063237;28;20196;-77
2024/01/21 07:33:04;;;;;;;3.97;1.40;;;41.90;51.90;;;;;;5058459;28;20218;-77
2024/01/21 07:35:35;;;;;;;6.43;1.85;;;42.10;50.60;;;;;;5064441;28;20204;-79
2024/01/21 07:38:06;;;;;;;6.65;1.70;;;42.30;50.40;;;;;;5075070;28;20263;-77
2024/01/21 07:40:37;;;;;;;5.07;1.70;;;42.10;50.50;;;;;;5072102;28;20210;-78
2024/01/21 07:43:10;;;;;;;5.32;1.40;;;42.00;50.20;;;;;;5051111;28;20666;-76
2024/01/21 07:45:41;;;;;;;4.68;1.40;;;41.80;49.30;;;;;;5061988;28;20715;-78
2024/01/21 07:48:12;;;;;;;2.63;1.40;;;42.00;48.70;;;;;;5052820;28;20565;-76
2024/01/21 07:50:43;;;;;;;3.83;1.30;;;42.00;48.30;;;;;;5055116;28;20199;-78
2024/01/21 07:53:13;;;;;;;5.15;1.17;;;41.70;47.80;;;;;;5084418;28;20602;-78
2024/01/21 07:55:44;;;;;;;2.45;1.10;;;41.70;47.70;;;;;;5056887;28;20218;-76
2024/01/21 07:58:18;;;;;;;3.28;1.20;;;42.00;47.60;;;;;;5083846;28;20384;-77
2024/01/21 08:00:48;;;;;;;4.20;1.40;;;42.20;47.30;;;;;;5050921;28;20211;-77
2024/01/21 08:03:19;;;;;;;3.40;1.27;;;42.20;46.40;;;;;;5083372;28;20206;-78
2024/01/21 08:05:50;;;;;;;3.17;1.30;;;41.80;46.20;;;;;;5083104;28;20228;-77
2024/01/21 08:08:21;;;;;;;3.13;1.20;;;41.50;45.90;;;;;;5087533;28;20595;-77
2024/01/21 08:10:52;;;;;;;6.13;1.33;;;41.30;46.40;;;;;;5078761;28;20192;-77
2024/01/21 08:13:25;;;;;;;2.95;1.20;;;40.90;46.20;;;;;;5048886;28;20650;-78
2024/01/21 08:15:55;;;;;;;4.07;1.15;;;40.30;46.30;;;;;;5051257;28;20637;-76
2024/01/21 08:18:26;;;;;;;2.85;1.10;;;39.90;46.90;;;;;;5070909;28;20195;-77
2024/01/21 08:20:57;;;;;;;3.30;1.15;;;39.10;48.00;;;;;;5076692;28;20234;-77
2024/01/21 08:23:28;;;;;;;3.65;1.33;;;38.60;48.70;;;;;;5091213;28;20198;-76
2024/01/21 08:26:01;;;;;;;4.13;1.35;;;38.00;49.10;;;;;;5090906;28;20228;-77
2024/01/21 08:28:34;;;;;;;2.70;1.00;;;37.40;49.90;;;;;;5068493;28;20677;-78
2024/01/21 08:31:06;;;;;;;4.07;1.30;;;36.80;50.80;;;;;;5069623;28;20209;-77
2024/01/21 08:33:38;;;;;;;2.90;1.20;;;36.50;51.30;;;;;;5070445;28;20217;-77
2024/01/21 08:36:10;;;;;;;4.30;1.33;;;36.10;51.60;;;;;;5070643;28;20568;-77
2024/01/21 08:38:41;;;;;;;3.80;1.20;;;35.90;52.40;;;;;;5070897;28;20282;-77
2024/01/21 08:41:11;;;;;;;2.55;1.30;;;35.60;53.20;;;;;;5068338;28;20200;-77
2024/01/21 08:43:44;;;;;;;3.47;1.27;;;35.20;53.00;;;;;;5070574;28;20693;-76
2024/01/21 08:46:15;;;;;;;3.47;1.23;;;34.90;53.40;;;;;;5067099;28;20229;-76
2024/01/21 08:48:46;;;;;;;3.20;1.40;;;34.80;54.50;;;;;;5073488;28;20207;-78
2024/01/21 08:51:17;;;;;;;3.25;1.50;;;34.50;54.70;;;;;;5067436;28;20283;-76
2024/01/21 08:53:55;;;;;;;2.38;1.20;;;34.30;55.30;;;;;;5054572;28;20215;-77
2024/01/21 08:56:26;;;;;;;3.35;1.40;;;34.20;56.10;;;;;;5077327;28;20239;-77
2024/01/21 08:58:59;;;;;;;5.22;1.42;;;34.00;56.30;;;;;;5080523;28;20228;-76
2024/01/21 09:01:29;;;;;;;5.00;1.48;;;33.90;56.90;;;;;;5089216;28;20198;-76
2024/01/21 09:04:00;;;;;;;4.85;1.70;;;33.90;57.20;;;;;;5094032;28;20256;-76
2024/01/21 09:06:31;;;;;;;6.15;1.70;;;33.80;58.70;;;;;;5113319;28;20223;-77
2024/01/21 09:09:02;;;;;;;4.47;1.50;;;33.70;58.40;;;;;;5111655;28;20617;-76
2024/01/21 09:11:33;;;;;;;5.03;1.48;;;33.50;59.30;;;;;;5109635;28;20209;-76
2024/01/21 09:14:05;;;;;;;2.90;1.30;;;33.40;59.30;;;;;;5092656;28;20199;-76
2024/01/21 09:16:36;;;;;;;3.08;1.27;;;33.30;59.60;;;;;;5097936;28;20209;-76
2024/01/21 09:19:07;;;;;;;3.35;1.30;;;33.20;60.10;;;;;;5066804;28;20194;-76
2024/01/21 09:21:38;;;;;;;5.05;1.48;;;33.10;60.70;;;;;;5060614;28;20710;-78
2024/01/21 09:24:11;;;;;;;6.88;1.63;;;33.00;61.00;;;;;;5073940;28;20241;-77
2024/01/21 09:26:42;;;;;;;5.72;2.00;;;33.00;62.30;;;;;;5061780;28;20235;-77
2024/01/21 09:29:14;;;;;;;5.47;1.55;;;32.80;63.60;;;;;;5092064;28;20195;-77
2024/01/21 09:31:54;;;;;;;3.83;1.60;;;32.70;63.30;;;;;;5054728;28;20197;-77
2024/01/21 09:34:25;;;;;;;4.80;1.80;;;32.70;64.40;;;;;;5068518;28;20192;-77
2024/01/21 09:36:56;;;;;;;3.08;1.80;;;32.70;63.90;;;;;;5061804;28;20201;-76
2024/01/21 09:39:27;;;;;;;4.60;1.67;;;32.60;64.60;;;;;;5086082;28;20207;-78
2024/01/21 09:41:59;;;;;;;4.38;1.70;;;32.50;65.10;;;;;;5077531;28;20193;-79
2024/01/21 09:44:35;;;;;;;3.28;1.52;;;32.40;65.00;;;;;;5063776;28;20188;-78
2024/01/21 09:47:06;;;;;;;4.28;1.55;;;32.40;66.20;;;;;;5070059;28;20255;-78
2024/01/21 09:49:37;;;;;;;5.93;1.60;;;32.30;66.30;;;;;;5065016;28;20215;-79
2024/01/21 09:52:09;;;;;;;4.22;1.60;;;32.30;67.40;;;;;;5060253;28;20216;-78
2024/01/21 09:54:40;;;;;;;3.70;1.70;;;32.30;68.50;;;;;;5061179;28;20222;-78
2024/01/21 09:57:13;;;;;;;4.63;1.75;;;32.20;69.30;;;;;;5057707;28;20223;-80
2024/01/21 09:59:46;;;;;;;5.63;1.80;;;32.20;70.60;;;;;;5061791;28;20208;-77
2024/01/21 10:02:18;;;;;;;5.80;1.77;;;32.10;71.30;;;;;;5087373;28;20199;-77
2024/01/21 10:04:50;;;;;;;3.40;1.52;;;32.00;71.80;;;;;;5068095;28;20200;-77
2024/01/21 10:07:21;;;;;;;4.45;1.67;;;32.00;71.40;;;;;;5073152;28;20259;-76
2024/01/21 10:09:57;;;;;;;3.65;1.60;;;31.90;72.80;;;;;;5064634;28;20203;-77
2024/01/21 10:12:31;;;;;;;4.53;1.60;;;31.90;72.70;;;;;;5065458;28;20218;-78
2024/01/21 10:15:03;;;;;;;3.10;1.90;;;31.80;72.70;;;;;;5065229;28;20196;-77
2024/01/21 10:17:37;;;;;;;6.72;1.70;;;31.80;73.70;;;;;;5074255;28;20192;-76
2024/01/21 10:20:14;;;;;;;3.92;1.70;;;31.70;73.80;;;;;;5063799;28;20200;-76
2024/01/21 10:22:45;;;;;;;4.47;1.95;;;31.70;74.50;;;;;;5075471;28;20206;-77
2024/01/21 10:25:21;;;;;;;4.88;1.88;;;31.70;76.00;;;;;;5069445;28;20231;-77
2024/01/21 10:27:55;;;;;;;3.58;1.55;;;31.70;76.60;;;;;;5055055;28;20232;-76
2024/01/21 10:30:28;;;;;;;7.35;1.70;;;31.70;76.90;;;;;;5054285;28;20216;-77
2024/01/21 10:32:59;;;;;;;2.60;1.40;;;31.70;76.30;;;;;;5065331;28;20645;-77
2024/01/21 10:35:37;;;;;;;3.15;1.50;;;31.60;76.10;;;;;;5073958;28;20220;-77
2024/01/21 10:38:12;;;;;;;3.35;1.30;;;31.60;76.00;;;;;;5071283;28;20218;-77
2024/01/21 10:40:46;;;;;;;4.32;1.60;;;31.50;77.40;;;;;;5073278;28;20199;-78
2024/01/21 10:43:17;;;;;;;4.82;1.80;;;31.40;76.70;;;;;;5062190;28;20222;-77
2024/01/21 10:45:51;;;;;;;4.57;1.40;;;31.40;79.20;;;;;;5073327;28;20216;-77
2024/01/21 10:48:22;;;;;;;28.10;6.05;;;31.30;76.30;;;;;;5077770;28;20223;-77
2024/01/21 10:50:54;;;;;;;29.60;6.43;;;31.00;86.70;;;;;;5072624;28;20192;-77
2024/01/21 10:53:26;;;;;;;47.63;8.55;;;30.40;93.90;;;;;;5075104;28;20283;-77
2024/01/21 10:55:58;;;;;;;35.08;8.10;;;29.90;97.10;;;;;;5069605;28;20200;-76
2024/01/21 10:58:31;;;;;;;40.10;8.52;;;29.50;99.90;;;;;;5073804;28;20204;-77
2024/01/21 11:01:06;;;;;;;28.98;7.82;;;29.00;99.90;;;;;;5071122;28;20192;-77
2024/01/21 11:03:39;;;;;;;41.90;9.05;;;28.50;99.90;;;;;;5082041;28;20195;-76
2024/01/21 11:06:12;;;;;;;42.45;8.75;;;28.20;99.90;;;;;;5084134;28;20256;-77
2024/01/21 11:08:45;;;;;;;35.63;7.90;;;27.80;99.90;;;;;;5064012;28;20234;-74
2024/01/21 11:11:22;;;;;;;38.25;8.57;;;27.60;99.90;;;;;;5073400;28;20196;-77
2024/01/21 11:13:54;;;;;;;47.67;9.55;;;27.30;99.90;;;;;;5075822;28;20615;-75
2024/01/21 11:16:44;;;;;;;38.75;8.20;;;27.20;99.90;;;;;;5087101;28;20205;-76
2024/01/21 11:19:17;;;;;;;41.20;7.53;;;26.90;99.90;;;;;;5056341;28;20204;-77
2024/01/21 11:21:48;;;;;;;37.08;7.65;;;26.80;99.90;;;;;;5058586;28;20200;-78
2024/01/21 11:24:18;;;;;;;43.38;9.05;;;26.80;99.90;;;;;;5068087;28;20200;-78
2024/01/21 11:26:50;;;;;;;31.95;7.43;;;26.70;99.90;;;;;;5073209;28;20223;-76
2024/01/21 11:29:31;;;;;;;33.85;8.20;;;26.60;99.90;;;;;;5091467;28;20286;-78
2024/01/21 11:32:11;;;;;;;40.80;8.50;;;26.50;99.90;;;;;;5090195;28;20609;-78
2024/01/21 11:34:45;;;;;;;37.08;8.48;;;26.40;99.90;;;;;;5072876;28;20227;-78
2024/01/21 11:37:16;;;;;;;43.25;8.43;;;26.30;99.90;;;;;;5072128;28;20234;-78
2024/01/21 11:39:49;;;;;;;42.60;9.15;;;26.20;99.90;;;;;;5070364;28;20212;-78
2024/01/21 11:42:20;;;;;;;41.83;8.23;;;26.10;99.90;;;;;;5074391;28;20733;-78
2024/01/21 11:44:50;;;;;;;41.72;8.70;;;26.10;99.90;;;;;;5080188;28;20776;-78
2024/01/21 11:47:23;;;;;;;37.00;7.90;;;26.00;99.90;;;;;;5088841;28;20700;-78
2024/01/21 11:49:55;;;;;;;43.90;8.52;;;25.90;99.90;;;;;;5066196;28;20275;-77
2024/01/21 11:52:26;;;;;;;39.92;8.23;;;25.80;99.90;;;;;;5072712;28;20623;-77
2024/01/21 11:54:57;;;;;;;44.22;9.60;;;25.70;99.90;;;;;;5069097;28;20678;-77
2024/01/21 11:57:28;;;;;;;46.88;8.55;;;25.80;99.90;;;;;;5061063;28;20723;-78
2024/01/21 11:59:59;;;;;;;36.92;7.88;;;25.70;99.90;;;;;;5073635;28;20273;-77
2024/01/21 12:02:32;;;;;;;35.35;8.00;;;25.60;99.90;;;;;;5083984;28;20302;-77
2024/01/21 12:05:02;;;;;;;39.92;8.23;;;25.60;99.90;;;;;;5091962;28;20209;-76
2024/01/21 12:07:34;;;;;;;35.58;7.88;;;25.50;99.90;;;;;;5064496;28;20322;-76
2024/01/21 12:10:05;;;;;;;32.67;8.30;;;25.60;99.90;;;;;;5068362;28;20196;-78
2024/01/21 12:12:36;;;;;;;36.88;8.00;;;25.70;99.90;;;;;;5071246;28;20207;-78
2024/01/21 12:15:09;;;;;;;36.25;7.60;;;25.60;99.90;;;;;;5070509;28;20200;-79
2024/01/21 12:17:42;;;;;;;36.17;8.20;;;25.50;99.90;;;;;;5070489;28;20634;-78
2024/01/21 12:20:14;;;;;;;32.80;7.22;;;25.60;99.90;;;;;;5070455;28;20204;-78
2024/01/21 12:22:46;;;;;;;27.60;6.93;;;25.60;99.90;;;;;;5058250;28;20200;-78
2024/01/21 12:25:19;;;;;;;29.23;7.40;;;25.70;99.90;;;;;;5065071;28;20187;-77
2024/01/21 12:27:57;;;;;;;37.67;8.32;;;25.80;99.90;;;;;;5082403;28;20198;-77
2024/01/21 12:30:28;;;;;;;32.92;7.43;;;25.70;99.90;;;;;;5090589;28;20206;-77
2024/01/21 12:33:01;;;;;;;27.70;6.72;;;25.60;99.90;;;;;;5057606;28;20219;-77
2024/01/21 12:35:32;;;;;;;25.17;6.38;;;25.60;99.90;;;;;;5073093;28;20202;-77
2024/01/21 12:38:03;;;;;;;28.73;7.05;;;25.60;99.90;;;;;;5081790;28;20704;-77
2024/01/21 12:40:34;;;;;;;29.15;7.30;;;25.50;99.90;;;;;;5079861;28;20215;-77
2024/01/21 12:43:04;;;;;;;33.35;7.47;;;25.60;99.90;;;;;;5062641;28;20188;-77
2024/01/21 12:45:35;;;;;;;27.33;6.93;;;25.60;99.90;;;;;;5074804;28;20283;-76
2024/01/21 12:48:08;;;;;;;31.33;7.25;;;25.60;99.90;;;;;;5075607;28;20566;-78
2024/01/21 12:50:41;;;;;;;24.33;7.07;;;25.50;99.90;;;;;;5074706;28;20199;-78
2024/01/21 12:53:12;;;;;;;30.48;7.10;;;25.50;99.90;;;;;;5077081;28;20192;-78
2024/01/21 12:55:43;;;;;;;30.40;7.07;;;25.50;99.90;;;;;;5063837;28;20632;-78
2024/01/21 12:58:14;;;;;;;30.67;7.00;;;25.40;99.90;;;;;;5054211;28;20679;-78
2024/01/21 13:00:44;;;;;;;31.20;7.70;;;25.40;99.90;;;;;;5077752;28;20206;-77
2024/01/21 13:03:17;;;;;;;28.40;7.03;;;25.30;99.90;;;;;;5094931;28;20195;-78
2024/01/21 13:05:49;;;;;;;31.73;7.45;;;25.30;99.90;;;;;;5089535;28;20203;-77
2024/01/21 13:08:20;;;;;;;27.85;6.50;;;25.20;99.90;;;;;;5079800;28;20305;-76